sensor_id;sensor_type;location;lat;lon;timestamp;P1;durP1;ratioP1;P2;durP2;ratioP2
60819;SDS011;46641;48.904;9.126;2023-02-20T00:01:12;4.23;;;3.33;;
60819;SDS011;46641;48.904;9.126;2023-02-20T00:06:02;5.18;;;2.90;;
60819;SDS011;46641;48.904;9.126;2023-02-20T00:10:53;4.53;;;3.17;;
60819;SDS011;46641;48.904;9.126;2023-02-20T00:15:43;8.33;;;2.90;;
60819;SDS011;46641;48.904;9.126;2023-02-20T00:20:34;5.63;;;3.03;;
60819;SDS011;46641;48.904;9.126;2023-02-20T00:25:26;6.83;;;2.53;;
60819;SDS011;46641;48.904;9.126;2023-02-20T00:30:17;4.87;;;2.67;;
60819;SDS011;46641;48.904;9.126;2023-02-20T00:35:12;3.70;;;3.00;;
60819;SDS011;46641;48.904;9.126;2023-02-20T00:40:03;5.07;;;2.93;;
60819;SDS011;46641;48.904;9.126;2023-02-20T00:44:54;6.33;;;2.97;;
60819;SDS011;46641;48.904;9.126;2023-02-20T00:49:44;6.27;;;3.23;;
60819;SDS011;46641;48.904;9.126;2023-02-20T00:54:35;4.87;;;2.67;;
60819;SDS011;46641;48.904;9.126;2023-02-20T00:59:25;6.03;;;3.20;;
60819;SDS011;46641;48.904;9.126;2023-02-20T01:04:16;4.10;;;2.63;;
60819;SDS011;46641;48.904;9.126;2023-02-20T01:09:06;4.67;;;3.20;;
60819;SDS011;46641;48.904;9.126;2023-02-20T01:13:58;4.23;;;3.27;;
60819;SDS011;46641;48.904;9.126;2023-02-20T01:18:49;3.50;;;2.67;;
60819;SDS011;46641;48.904;9.126;2023-02-20T01:23:40;3.43;;;2.50;;
60819;SDS011;46641;48.904;9.126;2023-02-20T01:28:30;3.40;;;2.50;;
60819;SDS011;46641;48.904;9.126;2023-02-20T01:33:20;3.50;;;2.30;;
60819;SDS011;46641;48.904;9.126;2023-02-20T01:38:11;4.07;;;2.42;;
60819;SDS011;46641;48.904;9.126;2023-02-20T01:43:01;4.50;;;2.80;;
60819;SDS011;46641;48.904;9.126;2023-02-20T01:47:54;3.87;;;2.83;;
60819;SDS011;46641;48.904;9.126;2023-02-20T01:52:47;3.20;;;2.90;;
60819;SDS011;46641;48.904;9.126;2023-02-20T01:57:43;4.57;;;3.30;;
60819;SDS011;46641;48.904;9.126;2023-02-20T02:02:41;4.37;;;2.90;;
60819;SDS011;46641;48.904;9.126;2023-02-20T02:07:35;5.57;;;2.90;;
60819;SDS011;46641;48.904;9.126;2023-02-20T02:12:25;7.80;;;3.13;;
60819;SDS011;46641;48.904;9.126;2023-02-20T02:39:24;3.90;;;2.80;;
60819;SDS011;46641;48.904;9.126;2023-02-20T02:54:06;4.77;;;2.47;;
60819;SDS011;46641;48.904;9.126;2023-02-20T02:58:59;4.33;;;2.80;;
60819;SDS011;46641;48.904;9.126;2023-02-20T03:03:49;3.50;;;2.77;;
60819;SDS011;46641;48.904;9.126;2023-02-20T03:08:42;4.03;;;2.80;;
60819;SDS011;46641;48.904;9.126;2023-02-20T03:13:47;6.53;;;3.80;;
60819;SDS011;46641;48.904;9.126;2023-02-20T03:19:00;4.10;;;2.90;;
60819;SDS011;46641;48.904;9.126;2023-02-20T03:23:53;3.90;;;2.80;;
60819;SDS011;46641;48.904;9.126;2023-02-20T03:28:51;5.83;;;2.93;;
60819;SDS011;46641;48.904;9.126;2023-02-20T03:33:56;5.80;;;3.20;;
60819;SDS011;46641;48.904;9.126;2023-02-20T03:39:23;5.73;;;2.53;;
60819;SDS011;46641;48.904;9.126;2023-02-20T03:44:38;2.70;;;2.50;;
60819;SDS011;46641;48.904;9.126;2023-02-20T03:49:31;5.50;;;2.70;;
60819;SDS011;46641;48.904;9.126;2023-02-20T03:54:26;4.17;;;2.63;;
60819;SDS011;46641;48.904;9.126;2023-02-20T03:59:29;3.97;;;2.70;;
60819;SDS011;46641;48.904;9.126;2023-02-20T04:04:25;3.27;;;2.47;;
60819;SDS011;46641;48.904;9.126;2023-02-20T04:09:20;2.83;;;2.60;;
60819;SDS011;46641;48.904;9.126;2023-02-20T04:14:15;2.93;;;2.40;;
60819;SDS011;46641;48.904;9.126;2023-02-20T04:19:09;3.93;;;2.47;;
60819;SDS011;46641;48.904;9.126;2023-02-20T04:24:08;3.90;;;2.07;;
60819;SDS011;46641;48.904;9.126;2023-02-20T04:29:03;5.13;;;2.57;;
60819;SDS011;46641;48.904;9.126;2023-02-20T04:33:54;3.93;;;2.43;;
60819;SDS011;46641;48.904;9.126;2023-02-20T04:38:44;5.33;;;3.03;;
60819;SDS011;46641;48.904;9.126;2023-02-20T04:43:35;4.50;;;2.90;;
60819;SDS011;46641;48.904;9.126;2023-02-20T04:48:25;3.87;;;2.57;;
60819;SDS011;46641;48.904;9.126;2023-02-20T04:53:16;4.50;;;2.53;;
60819;SDS011;46641;48.904;9.126;2023-02-20T04:58:06;3.73;;;2.43;;
60819;SDS011;46641;48.904;9.126;2023-02-20T05:02:56;3.73;;;2.67;;
60819;SDS011;46641;48.904;9.126;2023-02-20T05:07:47;4.50;;;2.90;;
60819;SDS011;46641;48.904;9.126;2023-02-20T05:12:38;4.83;;;2.90;;
60819;SDS011;46641;48.904;9.126;2023-02-20T05:17:28;3.83;;;2.70;;
60819;SDS011;46641;48.904;9.126;2023-02-20T05:22:18;4.73;;;2.87;;
60819;SDS011;46641;48.904;9.126;2023-02-20T05:27:09;4.10;;;2.70;;
60819;SDS011;46641;48.904;9.126;2023-02-20T05:32:00;3.00;;;2.67;;
60819;SDS011;46641;48.904;9.126;2023-02-20T05:36:50;4.30;;;3.00;;
60819;SDS011;46641;48.904;9.126;2023-02-20T05:41:41;4.97;;;2.87;;
60819;SDS011;46641;48.904;9.126;2023-02-20T05:46:31;4.67;;;3.30;;
60819;SDS011;46641;48.904;9.126;2023-02-20T05:51:25;4.85;;;3.83;;
60819;SDS011;46641;48.904;9.126;2023-02-20T05:56:17;4.50;;;3.80;;
60819;SDS011;46641;48.904;9.126;2023-02-20T06:01:09;6.77;;;5.00;;
60819;SDS011;46641;48.904;9.126;2023-02-20T06:06:05;6.67;;;3.30;;
60819;SDS011;46641;48.904;9.126;2023-02-20T06:10:56;5.10;;;3.00;;
60819;SDS011;46641;48.904;9.126;2023-02-20T06:15:46;4.22;;;2.80;;
60819;SDS011;46641;48.904;9.126;2023-02-20T06:20:36;4.70;;;2.75;;
60819;SDS011;46641;48.904;9.126;2023-02-20T06:25:27;4.78;;;3.10;;
60819;SDS011;46641;48.904;9.126;2023-02-20T06:30:17;3.55;;;2.85;;
60819;SDS011;46641;48.904;9.126;2023-02-20T06:35:07;3.13;;;2.20;;
60819;SDS011;46641;48.904;9.126;2023-02-20T06:39:58;3.37;;;2.90;;
60819;SDS011;46641;48.904;9.126;2023-02-20T06:44:48;2.90;;;2.60;;
60819;SDS011;46641;48.904;9.126;2023-02-20T06:49:39;4.88;;;3.00;;
60819;SDS011;46641;48.904;9.126;2023-02-20T06:54:30;4.97;;;4.17;;
60819;SDS011;46641;48.904;9.126;2023-02-20T06:59:21;5.20;;;3.30;;
60819;SDS011;46641;48.904;9.126;2023-02-20T07:04:17;6.13;;;3.27;;
60819;SDS011;46641;48.904;9.126;2023-02-20T07:09:12;4.43;;;3.40;;
60819;SDS011;46641;48.904;9.126;2023-02-20T07:14:04;4.40;;;3.60;;
60819;SDS011;46641;48.904;9.126;2023-02-20T07:18:54;4.53;;;3.80;;
60819;SDS011;46641;48.904;9.126;2023-02-20T07:23:44;7.25;;;3.80;;
60819;SDS011;46641;48.904;9.126;2023-02-20T07:28:35;4.90;;;3.87;;
60819;SDS011;46641;48.904;9.126;2023-02-20T07:33:25;5.20;;;4.05;;
60819;SDS011;46641;48.904;9.126;2023-02-20T07:38:15;6.85;;;3.63;;
60819;SDS011;46641;48.904;9.126;2023-02-20T07:43:06;4.70;;;3.33;;
60819;SDS011;46641;48.904;9.126;2023-02-20T07:47:56;3.87;;;3.47;;
60819;SDS011;46641;48.904;9.126;2023-02-20T07:52:46;3.55;;;3.22;;
60819;SDS011;46641;48.904;9.126;2023-02-20T07:57:37;3.30;;;2.93;;
60819;SDS011;46641;48.904;9.126;2023-02-20T08:02:28;4.90;;;3.70;;
60819;SDS011;46641;48.904;9.126;2023-02-20T08:07:18;4.32;;;2.83;;
60819;SDS011;46641;48.904;9.126;2023-02-20T08:12:09;7.63;;;3.20;;
60819;SDS011;46641;48.904;9.126;2023-02-20T08:16:59;4.03;;;3.53;;
60819;SDS011;46641;48.904;9.126;2023-02-20T08:21:49;4.03;;;3.13;;
60819;SDS011;46641;48.904;9.126;2023-02-20T08:26:43;5.30;;;3.50;;
60819;SDS011;46641;48.904;9.126;2023-02-20T08:31:34;4.77;;;2.93;;
60819;SDS011;46641;48.904;9.126;2023-02-20T08:36:24;3.87;;;2.80;;
60819;SDS011;46641;48.904;9.126;2023-02-20T08:41:15;3.57;;;2.77;;
60819;SDS011;46641;48.904;9.126;2023-02-20T08:46:05;5.38;;;3.10;;
60819;SDS011;46641;48.904;9.126;2023-02-20T08:50:56;3.93;;;2.23;;
60819;SDS011;46641;48.904;9.126;2023-02-20T08:55:46;5.00;;;3.13;;
60819;SDS011;46641;48.904;9.126;2023-02-20T09:00:37;4.47;;;3.47;;
60819;SDS011;46641;48.904;9.126;2023-02-20T09:05:27;3.07;;;2.77;;
60819;SDS011;46641;48.904;9.126;2023-02-20T09:10:18;3.83;;;2.13;;
60819;SDS011;46641;48.904;9.126;2023-02-20T09:15:09;5.40;;;3.23;;
60819;SDS011;46641;48.904;9.126;2023-02-20T09:19:59;3.67;;;2.37;;
60819;SDS011;46641;48.904;9.126;2023-02-20T09:24:50;2.53;;;1.97;;
60819;SDS011;46641;48.904;9.126;2023-02-20T09:29:41;2.93;;;2.43;;
60819;SDS011;46641;48.904;9.126;2023-02-20T09:34:33;3.10;;;2.80;;
60819;SDS011;46641;48.904;9.126;2023-02-20T09:39:24;2.83;;;2.23;;
60819;SDS011;46641;48.904;9.126;2023-02-20T09:44:19;5.93;;;3.03;;
60819;SDS011;46641;48.904;9.126;2023-02-20T09:49:18;4.60;;;2.73;;
60819;SDS011;46641;48.904;9.126;2023-02-20T09:54:25;4.23;;;2.80;;
60819;SDS011;46641;48.904;9.126;2023-02-20T09:59:30;5.03;;;2.50;;
60819;SDS011;46641;48.904;9.126;2023-02-20T10:04:25;3.77;;;2.60;;
60819;SDS011;46641;48.904;9.126;2023-02-20T10:09:20;4.70;;;2.80;;
60819;SDS011;46641;48.904;9.126;2023-02-20T10:14:29;3.03;;;2.17;;
60819;SDS011;46641;48.904;9.126;2023-02-20T10:19:42;2.97;;;2.07;;
60819;SDS011;46641;48.904;9.126;2023-02-20T10:29:46;3.73;;;2.20;;
60819;SDS011;46641;48.904;9.126;2023-02-20T10:34:41;3.90;;;2.50;;
60819;SDS011;46641;48.904;9.126;2023-02-20T10:39:39;4.80;;;2.33;;
60819;SDS011;46641;48.904;9.126;2023-02-20T10:44:52;3.97;;;2.30;;
60819;SDS011;46641;48.904;9.126;2023-02-20T10:54:57;3.23;;;2.10;;
60819;SDS011;46641;48.904;9.126;2023-02-20T11:00:00;2.50;;;1.80;;
60819;SDS011;46641;48.904;9.126;2023-02-20T11:04:56;6.93;;;3.00;;
60819;SDS011;46641;48.904;9.126;2023-02-20T11:09:52;4.40;;;2.80;;
60819;SDS011;46641;48.904;9.126;2023-02-20T11:14:42;3.33;;;2.07;;
60819;SDS011;46641;48.904;9.126;2023-02-20T11:19:40;3.20;;;1.87;;
60819;SDS011;46641;48.904;9.126;2023-02-20T11:24:34;3.30;;;1.80;;
60819;SDS011;46641;48.904;9.126;2023-02-20T11:29:32;2.33;;;2.07;;
60819;SDS011;46641;48.904;9.126;2023-02-20T11:34:26;2.93;;;1.60;;
60819;SDS011;46641;48.904;9.126;2023-02-20T11:39:23;1.50;;;1.30;;
60819;SDS011;46641;48.904;9.126;2023-02-20T11:44:17;4.00;;;1.90;;
60819;SDS011;46641;48.904;9.126;2023-02-20T11:49:22;2.43;;;1.60;;
60819;SDS011;46641;48.904;9.126;2023-02-20T11:54:18;3.17;;;1.70;;
60819;SDS011;46641;48.904;9.126;2023-02-20T11:59:28;3.43;;;1.77;;
60819;SDS011;46641;48.904;9.126;2023-02-20T12:04:26;3.87;;;1.80;;
60819;SDS011;46641;48.904;9.126;2023-02-20T12:09:21;3.97;;;1.65;;
60819;SDS011;46641;48.904;9.126;2023-02-20T12:14:15;3.57;;;1.70;;
60819;SDS011;46641;48.904;9.126;2023-02-20T12:19:16;4.67;;;1.90;;
60819;SDS011;46641;48.904;9.126;2023-02-20T12:29:37;3.07;;;1.63;;
60819;SDS011;46641;48.904;9.126;2023-02-20T12:34:38;2.63;;;1.50;;
60819;SDS011;46641;48.904;9.126;2023-02-20T12:50:24;1.80;;;1.40;;
60819;SDS011;46641;48.904;9.126;2023-02-20T12:55:20;2.77;;;1.37;;
60819;SDS011;46641;48.904;9.126;2023-02-20T13:00:29;2.27;;;1.40;;
60819;SDS011;46641;48.904;9.126;2023-02-20T13:05:23;1.57;;;1.30;;
60819;SDS011;46641;48.904;9.126;2023-02-20T13:10:21;2.60;;;1.50;;
60819;SDS011;46641;48.904;9.126;2023-02-20T13:20:28;1.87;;;1.30;;
60819;SDS011;46641;48.904;9.126;2023-02-20T13:30:20;2.90;;;1.30;;
60819;SDS011;46641;48.904;9.126;2023-02-20T13:45:39;1.87;;;1.20;;
60819;SDS011;46641;48.904;9.126;2023-02-20T13:50:31;2.23;;;1.70;;
60819;SDS011;46641;48.904;9.126;2023-02-20T13:55:23;1.77;;;1.23;;
60819;SDS011;46641;48.904;9.126;2023-02-20T14:00:18;1.80;;;1.30;;
60819;SDS011;46641;48.904;9.126;2023-02-20T14:05:18;2.40;;;1.47;;
60819;SDS011;46641;48.904;9.126;2023-02-20T14:10:33;3.33;;;1.30;;
60819;SDS011;46641;48.904;9.126;2023-02-20T14:15:23;1.73;;;1.37;;
60819;SDS011;46641;48.904;9.126;2023-02-20T14:20:17;2.10;;;1.50;;
60819;SDS011;46641;48.904;9.126;2023-02-20T14:30:12;3.47;;;1.10;;
60819;SDS011;46641;48.904;9.126;2023-02-20T14:45:24;4.77;;;1.37;;
60819;SDS011;46641;48.904;9.126;2023-02-20T14:50:16;4.87;;;1.40;;
60819;SDS011;46641;48.904;9.126;2023-02-20T14:55:13;1.37;;;1.27;;
60819;SDS011;46641;48.904;9.126;2023-02-20T15:05:06;2.97;;;1.30;;
60819;SDS011;46641;48.904;9.126;2023-02-20T15:09:59;2.77;;;1.17;;
60819;SDS011;46641;48.904;9.126;2023-02-20T15:14:56;3.47;;;2.03;;
60819;SDS011;46641;48.904;9.126;2023-02-20T15:19:49;4.27;;;2.70;;
60819;SDS011;46641;48.904;9.126;2023-02-20T15:24:41;2.50;;;1.47;;
60819;SDS011;46641;48.904;9.126;2023-02-20T15:29:31;1.40;;;1.27;;
60819;SDS011;46641;48.904;9.126;2023-02-20T15:34:43;2.27;;;1.57;;
60819;SDS011;46641;48.904;9.126;2023-02-20T15:39:37;6.50;;;1.50;;
60819;SDS011;46641;48.904;9.126;2023-02-20T15:44:29;3.10;;;1.60;;
60819;SDS011;46641;48.904;9.126;2023-02-20T15:49:19;2.47;;;2.10;;
60819;SDS011;46641;48.904;9.126;2023-02-20T15:54:14;2.50;;;1.80;;
60819;SDS011;46641;48.904;9.126;2023-02-20T15:59:07;5.90;;;2.00;;
60819;SDS011;46641;48.904;9.126;2023-02-20T16:04:00;4.73;;;2.13;;
60819;SDS011;46641;48.904;9.126;2023-02-20T16:08:51;2.27;;;1.57;;
60819;SDS011;46641;48.904;9.126;2023-02-20T16:13:42;3.23;;;1.87;;
60819;SDS011;46641;48.904;9.126;2023-02-20T16:18:36;2.77;;;1.63;;
60819;SDS011;46641;48.904;9.126;2023-02-20T16:23:26;2.77;;;1.77;;
60819;SDS011;46641;48.904;9.126;2023-02-20T16:28:19;3.00;;;1.70;;
60819;SDS011;46641;48.904;9.126;2023-02-20T16:38:02;3.30;;;1.93;;
60819;SDS011;46641;48.904;9.126;2023-02-20T16:42:52;3.33;;;1.60;;
60819;SDS011;46641;48.904;9.126;2023-02-20T16:47:43;2.10;;;1.42;;
60819;SDS011;46641;48.904;9.126;2023-02-20T16:52:38;2.90;;;1.73;;
60819;SDS011;46641;48.904;9.126;2023-02-20T16:57:30;1.30;;;1.20;;
60819;SDS011;46641;48.904;9.126;2023-02-20T17:02:24;1.83;;;1.30;;
60819;SDS011;46641;48.904;9.126;2023-02-20T17:07:19;2.33;;;1.90;;
60819;SDS011;46641;48.904;9.126;2023-02-20T17:12:09;6.47;;;2.90;;
60819;SDS011;46641;48.904;9.126;2023-02-20T17:17:00;4.13;;;2.10;;
60819;SDS011;46641;48.904;9.126;2023-02-20T17:21:51;3.23;;;1.60;;
60819;SDS011;46641;48.904;9.126;2023-02-20T17:26:42;3.10;;;2.00;;
60819;SDS011;46641;48.904;9.126;2023-02-20T17:31:32;3.13;;;1.80;;
60819;SDS011;46641;48.904;9.126;2023-02-20T17:36:22;6.20;;;1.60;;
60819;SDS011;46641;48.904;9.126;2023-02-20T17:41:13;2.50;;;2.20;;
60819;SDS011;46641;48.904;9.126;2023-02-20T17:46:03;4.70;;;2.97;;
60819;SDS011;46641;48.904;9.126;2023-02-20T17:50:54;9.90;;;5.43;;
60819;SDS011;46641;48.904;9.126;2023-02-20T17:55:44;12.63;;;8.33;;
60819;SDS011;46641;48.904;9.126;2023-02-20T18:00:34;4.33;;;2.30;;
60819;SDS011;46641;48.904;9.126;2023-02-20T18:05:24;4.13;;;2.63;;
60819;SDS011;46641;48.904;9.126;2023-02-20T18:10:16;4.07;;;2.40;;
60819;SDS011;46641;48.904;9.126;2023-02-20T18:15:08;6.23;;;4.57;;
60819;SDS011;46641;48.904;9.126;2023-02-20T18:19:58;6.40;;;4.77;;
60819;SDS011;46641;48.904;9.126;2023-02-20T18:24:49;18.23;;;11.97;;
60819;SDS011;46641;48.904;9.126;2023-02-20T18:29:39;9.23;;;7.50;;
60819;SDS011;46641;48.904;9.126;2023-02-20T18:34:29;11.70;;;9.15;;
60819;SDS011;46641;48.904;9.126;2023-02-20T18:39:20;10.23;;;7.10;;
60819;SDS011;46641;48.904;9.126;2023-02-20T18:44:10;9.83;;;6.83;;
60819;SDS011;46641;48.904;9.126;2023-02-20T18:49:01;9.30;;;6.60;;
60819;SDS011;46641;48.904;9.126;2023-02-20T18:53:53;6.07;;;5.33;;
60819;SDS011;46641;48.904;9.126;2023-02-20T18:58:43;5.47;;;4.43;;
60819;SDS011;46641;48.904;9.126;2023-02-20T19:03:33;6.63;;;4.03;;
60819;SDS011;46641;48.904;9.126;2023-02-20T19:08:24;5.57;;;3.77;;
60819;SDS011;46641;48.904;9.126;2023-02-20T19:13:14;6.33;;;4.43;;
60819;SDS011;46641;48.904;9.126;2023-02-20T19:18:04;4.77;;;4.20;;
60819;SDS011;46641;48.904;9.126;2023-02-20T19:22:55;4.80;;;3.90;;
60819;SDS011;46641;48.904;9.126;2023-02-20T19:27:47;6.70;;;4.43;;
60819;SDS011;46641;48.904;9.126;2023-02-20T19:32:37;6.07;;;4.73;;
60819;SDS011;46641;48.904;9.126;2023-02-20T19:37:28;6.47;;;4.90;;
60819;SDS011;46641;48.904;9.126;2023-02-20T19:42:18;5.37;;;4.77;;
60819;SDS011;46641;48.904;9.126;2023-02-20T19:47:08;6.33;;;5.60;;
60819;SDS011;46641;48.904;9.126;2023-02-20T19:51:59;7.33;;;5.60;;
60819;SDS011;46641;48.904;9.126;2023-02-20T19:56:51;8.43;;;6.43;;
60819;SDS011;46641;48.904;9.126;2023-02-20T20:01:51;9.03;;;5.47;;
60819;SDS011;46641;48.904;9.126;2023-02-20T20:06:43;6.77;;;5.60;;
60819;SDS011;46641;48.904;9.126;2023-02-20T20:11:33;5.67;;;5.17;;
60819;SDS011;46641;48.904;9.126;2023-02-20T20:16:24;7.77;;;4.90;;
60819;SDS011;46641;48.904;9.126;2023-02-20T20:21:14;6.27;;;4.73;;
60819;SDS011;46641;48.904;9.126;2023-02-20T20:26:05;7.50;;;6.80;;
60819;SDS011;46641;48.904;9.126;2023-02-20T20:30:55;25.67;;;23.10;;
60819;SDS011;46641;48.904;9.126;2023-02-20T20:35:45;23.83;;;20.93;;
60819;SDS011;46641;48.904;9.126;2023-02-20T20:40:36;16.27;;;14.57;;
60819;SDS011;46641;48.904;9.126;2023-02-20T20:45:26;17.13;;;15.27;;
60819;SDS011;46641;48.904;9.126;2023-02-20T20:50:18;21.37;;;18.30;;
60819;SDS011;46641;48.904;9.126;2023-02-20T20:55:10;17.00;;;15.20;;
60819;SDS011;46641;48.904;9.126;2023-02-20T21:00:04;14.80;;;13.27;;
60819;SDS011;46641;48.904;9.126;2023-02-20T21:04:57;22.83;;;19.93;;
60819;SDS011;46641;48.904;9.126;2023-02-20T21:09:47;29.90;;;26.80;;
60819;SDS011;46641;48.904;9.126;2023-02-20T21:14:38;27.95;;;25.33;;
60819;SDS011;46641;48.904;9.126;2023-02-20T21:19:29;21.67;;;19.53;;
60819;SDS011;46641;48.904;9.126;2023-02-20T21:24:20;22.43;;;20.13;;
60819;SDS011;46641;48.904;9.126;2023-02-20T21:29:10;21.90;;;19.60;;
60819;SDS011;46641;48.904;9.126;2023-02-20T21:34:00;18.77;;;16.80;;
60819;SDS011;46641;48.904;9.126;2023-02-20T21:38:51;19.87;;;17.87;;
60819;SDS011;46641;48.904;9.126;2023-02-20T21:43:41;16.57;;;14.97;;
60819;SDS011;46641;48.904;9.126;2023-02-20T21:48:50;14.73;;;13.33;;
60819;SDS011;46641;48.904;9.126;2023-02-20T21:53:40;16.48;;;14.80;;
60819;SDS011;46641;48.904;9.126;2023-02-20T21:58:31;14.40;;;12.38;;
60819;SDS011;46641;48.904;9.126;2023-02-20T22:03:39;13.53;;;11.30;;
60819;SDS011;46641;48.904;9.126;2023-02-20T22:08:30;10.20;;;8.17;;
60819;SDS011;46641;48.904;9.126;2023-02-20T22:13:38;9.90;;;9.00;;
60819;SDS011;46641;48.904;9.126;2023-02-20T22:18:47;8.83;;;7.90;;
60819;SDS011;46641;48.904;9.126;2023-02-20T22:23:56;8.40;;;7.60;;
60819;SDS011;46641;48.904;9.126;2023-02-20T22:29:05;9.20;;;7.57;;
60819;SDS011;46641;48.904;9.126;2023-02-20T22:34:14;11.87;;;9.20;;
60819;SDS011;46641;48.904;9.126;2023-02-20T22:39:23;10.93;;;9.67;;
60819;SDS011;46641;48.904;9.126;2023-02-20T22:44:32;11.33;;;10.17;;
60819;SDS011;46641;48.904;9.126;2023-02-20T22:49:41;12.40;;;9.07;;
60819;SDS011;46641;48.904;9.126;2023-02-20T22:54:49;10.40;;;8.73;;
60819;SDS011;46641;48.904;9.126;2023-02-20T22:59:58;12.50;;;9.90;;
60819;SDS011;46641;48.904;9.126;2023-02-20T23:05:07;12.23;;;9.47;;
60819;SDS011;46641;48.904;9.126;2023-02-20T23:10:16;11.83;;;10.37;;
60819;SDS011;46641;48.904;9.126;2023-02-20T23:15:25;12.80;;;11.60;;
60819;SDS011;46641;48.904;9.126;2023-02-20T23:20:34;12.73;;;11.60;;
60819;SDS011;46641;48.904;9.126;2023-02-20T23:25:43;13.30;;;12.00;;
60819;SDS011;46641;48.904;9.126;2023-02-20T23:30:52;12.60;;;11.40;;
60819;SDS011;46641;48.904;9.126;2023-02-20T23:36:00;12.13;;;10.93;;
60819;SDS011;46641;48.904;9.126;2023-02-20T23:41:09;13.57;;;12.13;;
60819;SDS011;46641;48.904;9.126;2023-02-20T23:46:18;12.27;;;10.97;;
60819;SDS011;46641;48.904;9.126;2023-02-20T23:51:27;12.53;;;10.60;;
60819;SDS011;46641;48.904;9.126;2023-02-20T23:56:36;11.43;;;9.53;;
